Dalhart Municipal Airport
KDHT : now visible

Airfield :











YOU CAN JOIN US ON...

 
LOGIN :

Register | Disclaimer

   EN    FR    IT 

 









Legend :    VFR   Marginal VFR   IFR   Intensive IFR   Very Intensive IFR
Visi :
Ceiling :
>= 8 km
>= 3000ft
5 to 8 km
1000 to 3000 ft
1500m to 5 km
500 to 1000 ft
800 to 1500m
200 to 500 ft
< 800m
< 200 ft
Symbols :   Thunderstorms  Fog  Heavy snow  Heavy precipitations  Wind > 20 kt







- Airport Elevation : 3991 ft


KDHT - Dalhart Municipal

CURRENT METAR :
  • 181853Z AUTO 16008KT 10SM CLR 36/12 A2993 RMK AO2 SLP056 T03610122

EXPIRED METARs :
  • 181753Z AUTO 20006KT 10SM CLR 34/13 A2994 RMK AO2 SLP061 T03440133 10350 20189 58011
  • 181653Z AUTO 20008G16KT 170V230 10SM CLR 33/14 A2996 RMK AO2 SLP070 T03280144

TAF KDHT
Valid from the 18 at 18:00 until the 19 at 18:00 UTC


181744Z 1818/1918 19012G20KT P6SM FEW250
FM190600 18010KT P6SM SKC WS020/22040KT
FM191400 19011G20KT P6SM SKC
KZAB FIR / North America



MET'MAP, your aeronautical weather chart ! - Copyright ORBIFLY December 2007 - Disclaimer

ORBIFLY MET'MAP TEAM :

Programming & Development : Alexandra Zaïnal
Concept & Development : Baudouin d'Aumeries
Co-Development & Prog : Marc-Olivier Méhu
Technical & hardware support : Manuel Goepfert

Contact : metmap@orbifly.com




SOURCES & CREDITS :

   NOAA       Earth
Advisory